sensor_id;sensor_type;location;lat;lon;timestamp;pressure;altitude;pressure_sealevel;temperature
82774;BMP280;72508;45.118;20.728;2023-10-19T00:07:18;100141.59;;;15.35
82774;BMP280;72508;45.118;20.728;2023-10-19T00:17:20;100128.53;;;15.51
82774;BMP280;72508;45.118;20.728;2023-10-19T00:27:23;100110.16;;;15.61
82774;BMP280;72508;45.118;20.728;2023-10-19T00:37:27;100084.06;;;15.65
82774;BMP280;72508;45.118;20.728;2023-10-19T00:47:31;100072.44;;;15.71
82774;BMP280;72508;45.118;20.728;2023-10-19T00:57:42;100071.16;;;15.73
82774;BMP280;72508;45.118;20.728;2023-10-19T01:07:50;100049.66;;;15.59
82774;BMP280;72508;45.118;20.728;2023-10-19T01:17:58;100045.97;;;15.60
82774;BMP280;72508;45.118;20.728;2023-10-19T01:28:08;100042.78;;;15.53
82774;BMP280;72508;45.118;20.728;2023-10-19T01:38:11;100035.97;;;15.63
82774;BMP280;72508;45.118;20.728;2023-10-19T01:48:14;100030.69;;;15.57
82774;BMP280;72508;45.118;20.728;2023-10-19T01:58:17;100034.84;;;15.53
82774;BMP280;72508;45.118;20.728;2023-10-19T02:08:19;100012.16;;;15.52
82774;BMP280;72508;45.118;20.728;2023-10-19T02:18:27;100005.81;;;15.53
82774;BMP280;72508;45.118;20.728;2023-10-19T02:28:29;99961.03;;;15.26
82774;BMP280;72508;45.118;20.728;2023-10-19T02:38:33;100013.81;;;15.64
82774;BMP280;72508;45.118;20.728;2023-10-19T02:48:36;100016.41;;;15.58
82774;BMP280;72508;45.118;20.728;2023-10-19T02:58:40;100037.63;;;15.69
82774;BMP280;72508;45.118;20.728;2023-10-19T03:08:44;100028.00;;;15.52
82774;BMP280;72508;45.118;20.728;2023-10-19T03:18:47;100036.16;;;15.51
82774;BMP280;72508;45.118;20.728;2023-10-19T03:28:50;100006.91;;;15.25
82774;BMP280;72508;45.118;20.728;2023-10-19T03:39:01;99991.97;;;15.36
82774;BMP280;72508;45.118;20.728;2023-10-19T03:49:15;99992.63;;;15.53
82774;BMP280;72508;45.118;20.728;2023-10-19T03:59:18;99975.56;;;15.29
82774;BMP280;72508;45.118;20.728;2023-10-19T04:09:19;99972.41;;;14.94
82774;BMP280;72508;45.118;20.728;2023-10-19T04:19:21;99955.13;;;14.82
82774;BMP280;72508;45.118;20.728;2023-10-19T04:29:23;99960.38;;;14.77
82774;BMP280;72508;45.118;20.728;2023-10-19T04:39:28;99977.78;;;14.78
82774;BMP280;72508;45.118;20.728;2023-10-19T04:49:31;99986.72;;;14.77
82774;BMP280;72508;45.118;20.728;2023-10-19T04:59:36;99987.16;;;14.68
82774;BMP280;72508;45.118;20.728;2023-10-19T05:09:38;99957.72;;;14.77
82774;BMP280;72508;45.118;20.728;2023-10-19T05:19:42;99931.97;;;14.84
82774;BMP280;72508;45.118;20.728;2023-10-19T05:29:50;99929.94;;;14.96
82774;BMP280;72508;45.118;20.728;2023-10-19T05:39:57;99939.19;;;14.99
82774;BMP280;72508;45.118;20.728;2023-10-19T05:50:04;99945.13;;;15.16
82774;BMP280;72508;45.118;20.728;2023-10-19T06:00:18;99951.81;;;15.24
82774;BMP280;72508;45.118;20.728;2023-10-19T06:10:40;99939.84;;;15.16
82774;BMP280;72508;45.118;20.728;2023-10-19T06:20:44;99915.34;;;15.21
82774;BMP280;72508;45.118;20.728;2023-10-19T06:30:46;99954.13;;;15.63
82774;BMP280;72508;45.118;20.728;2023-10-19T06:40:49;99956.34;;;15.81
82774;BMP280;72508;45.118;20.728;2023-10-19T06:50:51;99951.59;;;15.78
82774;BMP280;72508;45.118;20.728;2023-10-19T07:00:53;99966.44;;;15.99
82774;BMP280;72508;45.118;20.728;2023-10-19T07:10:57;99971.22;;;15.97
82774;BMP280;72508;45.118;20.728;2023-10-19T07:20:59;99958.31;;;16.11
82774;BMP280;72508;45.118;20.728;2023-10-19T07:31:05;99925.84;;;16.21
82774;BMP280;72508;45.118;20.728;2023-10-19T07:41:13;99903.94;;;16.31
82774;BMP280;72508;45.118;20.728;2023-10-19T07:51:15;99896.31;;;16.44
82774;BMP280;72508;45.118;20.728;2023-10-19T08:01:18;99896.56;;;16.58
82774;BMP280;72508;45.118;20.728;2023-10-19T08:11:20;99894.97;;;16.83
82774;BMP280;72508;45.118;20.728;2023-10-19T08:21:23;99878.25;;;17.13
82774;BMP280;72508;45.118;20.728;2023-10-19T08:31:24;99869.28;;;17.09
82774;BMP280;72508;45.118;20.728;2023-10-19T08:41:26;99828.88;;;17.48
82774;BMP280;72508;45.118;20.728;2023-10-19T08:51:28;99821.84;;;18.46
82774;BMP280;72508;45.118;20.728;2023-10-19T09:01:30;99829.50;;;19.00
82774;BMP280;72508;45.118;20.728;2023-10-19T09:11:32;99823.75;;;19.55
82774;BMP280;72508;45.118;20.728;2023-10-19T09:21:34;99776.28;;;20.33
82774;BMP280;72508;45.118;20.728;2023-10-19T09:31:36;99783.63;;;20.63
82774;BMP280;72508;45.118;20.728;2023-10-19T09:41:37;99769.06;;;21.25
82774;BMP280;72508;45.118;20.728;2023-10-19T09:51:40;99766.34;;;21.61
82774;BMP280;72508;45.118;20.728;2023-10-19T10:02:07;99769.56;;;22.43
82774;BMP280;72508;45.118;20.728;2023-10-19T10:12:21;99727.69;;;22.95
82774;BMP280;72508;45.118;20.728;2023-10-19T10:22:23;99695.44;;;23.82
82774;BMP280;72508;45.118;20.728;2023-10-19T10:32:45;99698.28;;;24.57
82774;BMP280;72508;45.118;20.728;2023-10-19T10:42:52;99673.63;;;24.85
82774;BMP280;72508;45.118;20.728;2023-10-19T10:53:05;99640.44;;;25.10
82774;BMP280;72508;45.118;20.728;2023-10-19T11:03:07;99632.28;;;25.07
82774;BMP280;72508;45.118;20.728;2023-10-19T11:13:11;99615.00;;;25.29
82774;BMP280;72508;45.118;20.728;2023-10-19T11:23:12;99605.84;;;24.18
82774;BMP280;72508;45.118;20.728;2023-10-19T11:33:14;99591.88;;;23.91
82774;BMP280;72508;45.118;20.728;2023-10-19T11:43:19;99586.75;;;24.61
82774;BMP280;72508;45.118;20.728;2023-10-19T11:53:21;99559.34;;;24.77
82774;BMP280;72508;45.118;20.728;2023-10-19T12:03:22;99542.22;;;23.90
82774;BMP280;72508;45.118;20.728;2023-10-19T12:13:24;99533.50;;;23.43
82774;BMP280;72508;45.118;20.728;2023-10-19T12:23:26;99540.88;;;23.16
82774;BMP280;72508;45.118;20.728;2023-10-19T12:33:27;99532.28;;;23.11
82774;BMP280;72508;45.118;20.728;2023-10-19T12:43:29;99520.56;;;23.24
82774;BMP280;72508;45.118;20.728;2023-10-19T12:53:31;99519.63;;;24.00
82774;BMP280;72508;45.118;20.728;2023-10-19T13:03:34;99506.16;;;23.75
82774;BMP280;72508;45.118;20.728;2023-10-19T13:13:37;99498.69;;;23.60
82774;BMP280;72508;45.118;20.728;2023-10-19T13:23:43;99476.69;;;23.34
82774;BMP280;72508;45.118;20.728;2023-10-19T13:33:45;99472.53;;;23.15
82774;BMP280;72508;45.118;20.728;2023-10-19T13:43:47;99449.34;;;23.07
82774;BMP280;72508;45.118;20.728;2023-10-19T13:53:49;99455.25;;;23.13
82774;BMP280;72508;45.118;20.728;2023-10-19T14:03:52;99442.88;;;23.08
82774;BMP280;72508;45.118;20.728;2023-10-19T14:13:56;99441.03;;;23.00
82774;BMP280;72508;45.118;20.728;2023-10-19T14:23:57;99424.50;;;23.07
82774;BMP280;72508;45.118;20.728;2023-10-19T14:34:03;99421.06;;;22.97
82774;BMP280;72508;45.118;20.728;2023-10-19T14:44:09;99415.19;;;22.83
82774;BMP280;72508;45.118;20.728;2023-10-19T14:54:11;99413.94;;;22.89
82774;BMP280;72508;45.118;20.728;2023-10-19T15:04:12;99407.72;;;22.68
82774;BMP280;72508;45.118;20.728;2023-10-19T15:14:14;99412.94;;;22.55
82774;BMP280;72508;45.118;20.728;2023-10-19T15:24:17;99409.69;;;22.41
82774;BMP280;72508;45.118;20.728;2023-10-19T15:34:19;99406.63;;;22.22
82774;BMP280;72508;45.118;20.728;2023-10-19T15:44:21;99409.63;;;22.03
82774;BMP280;72508;45.118;20.728;2023-10-19T15:54:23;99419.34;;;21.81
82774;BMP280;72508;45.118;20.728;2023-10-19T16:04:24;99418.06;;;21.61
82774;BMP280;72508;45.118;20.728;2023-10-19T16:14:26;99432.63;;;21.55
82774;BMP280;72508;45.118;20.728;2023-10-19T16:24:27;99433.09;;;21.49
82774;BMP280;72508;45.118;20.728;2023-10-19T16:34:30;99434.78;;;21.36
82774;BMP280;72508;45.118;20.728;2023-10-19T16:44:32;99437.88;;;21.21
82774;BMP280;72508;45.118;20.728;2023-10-19T16:54:33;99447.06;;;21.06
82774;BMP280;72508;45.118;20.728;2023-10-19T17:04:35;99449.22;;;20.95
82774;BMP280;72508;45.118;20.728;2023-10-19T17:14:36;99440.38;;;20.77
82774;BMP280;72508;45.118;20.728;2023-10-19T17:24:38;99455.03;;;20.66
82774;BMP280;72508;45.118;20.728;2023-10-19T17:34:40;99436.97;;;20.54
82774;BMP280;72508;45.118;20.728;2023-10-19T17:44:41;99445.09;;;20.49
82774;BMP280;72508;45.118;20.728;2023-10-19T17:54:43;99442.19;;;20.37
82774;BMP280;72508;45.118;20.728;2023-10-19T18:04:49;99443.88;;;20.33
82774;BMP280;72508;45.118;20.728;2023-10-19T18:14:54;99440.59;;;20.36
82774;BMP280;72508;45.118;20.728;2023-10-19T18:24:55;99434.66;;;20.39
82774;BMP280;72508;45.118;20.728;2023-10-19T18:34:58;99442.81;;;20.42
82774;BMP280;72508;45.118;20.728;2023-10-19T18:45:01;99424.09;;;20.48
82774;BMP280;72508;45.118;20.728;2023-10-19T18:55:02;99415.94;;;20.44
82774;BMP280;72508;45.118;20.728;2023-10-19T19:05:04;99410.50;;;20.27
82774;BMP280;72508;45.118;20.728;2023-10-19T19:15:06;99410.97;;;20.06
82774;BMP280;72508;45.118;20.728;2023-10-19T19:25:08;99407.13;;;19.90
82774;BMP280;72508;45.118;20.728;2023-10-19T19:35:09;99391.34;;;19.93
82774;BMP280;72508;45.118;20.728;2023-10-19T19:45:13;99387.66;;;19.81
82774;BMP280;72508;45.118;20.728;2023-10-19T19:55:15;99378.63;;;19.68
82774;BMP280;72508;45.118;20.728;2023-10-19T20:05:18;99377.00;;;19.58
82774;BMP280;72508;45.118;20.728;2023-10-19T20:15:19;99388.19;;;19.55
82774;BMP280;72508;45.118;20.728;2023-10-19T20:25:21;99373.75;;;19.47
82774;BMP280;72508;45.118;20.728;2023-10-19T20:35:23;99359.19;;;19.45
82774;BMP280;72508;45.118;20.728;2023-10-19T20:45:25;99356.03;;;19.43
82774;BMP280;72508;45.118;20.728;2023-10-19T20:55:27;99351.34;;;19.40
82774;BMP280;72508;45.118;20.728;2023-10-19T21:05:29;99328.28;;;19.27
82774;BMP280;72508;45.118;20.728;2023-10-19T21:15:31;99330.94;;;19.27
82774;BMP280;72508;45.118;20.728;2023-10-19T21:25:34;99322.72;;;19.37
82774;BMP280;72508;45.118;20.728;2023-10-19T21:35:36;99320.06;;;19.37
82774;BMP280;72508;45.118;20.728;2023-10-19T21:45:41;99304.84;;;19.29
82774;BMP280;72508;45.118;20.728;2023-10-19T21:55:44;99294.91;;;19.20
82774;BMP280;72508;45.118;20.728;2023-10-19T22:05:46;99287.69;;;19.12
82774;BMP280;72508;45.118;20.728;2023-10-19T22:15:48;99287.88;;;19.16
82774;BMP280;72508;45.118;20.728;2023-10-19T22:25:50;99268.31;;;19.12
82774;BMP280;72508;45.118;20.728;2023-10-19T22:35:51;99266.81;;;19.19
82774;BMP280;72508;45.118;20.728;2023-10-19T22:45:53;99243.75;;;19.06
82774;BMP280;72508;45.118;20.728;2023-10-19T22:55:54;99243.03;;;19.14
82774;BMP280;72508;45.118;20.728;2023-10-19T23:05:56;99248.94;;;19.11
82774;BMP280;72508;45.118;20.728;2023-10-19T23:16:01;99247.38;;;19.10
82774;BMP280;72508;45.118;20.728;2023-10-19T23:26:02;99235.78;;;19.06
82774;BMP280;72508;45.118;20.728;2023-10-19T23:36:08;99234.25;;;18.91
82774;BMP280;72508;45.118;20.728;2023-10-19T23:46:10;99223.81;;;18.95
82774;BMP280;72508;45.118;20.728;2023-10-19T23:56:11;99222.44;;;18.97
